sensor_id;sensor_type;location;lat;lon;timestamp;P1;durP1;ratioP1;P2;durP2;ratioP2
75854;SDS011;64502;59.976;30.316;2023-06-24T00:02:00;7.88;;;4.30;;
75854;SDS011;64502;59.976;30.316;2023-06-24T00:04:26;6.93;;;3.38;;
75854;SDS011;64502;59.976;30.316;2023-06-24T00:06:52;6.45;;;3.90;;
75854;SDS011;64502;59.976;30.316;2023-06-24T00:09:17;6.72;;;3.33;;
75854;SDS011;64502;59.976;30.316;2023-06-24T00:11:43;7.95;;;3.35;;
75854;SDS011;64502;59.976;30.316;2023-06-24T00:14:08;7.95;;;3.95;;
75854;SDS011;64502;59.976;30.316;2023-06-24T00:16:34;7.47;;;4.03;;
75854;SDS011;64502;59.976;30.316;2023-06-24T00:19:01;7.75;;;3.83;;
75854;SDS011;64502;59.976;30.316;2023-06-24T00:21:26;6.50;;;4.05;;
75854;SDS011;64502;59.976;30.316;2023-06-24T00:23:57;7.15;;;3.22;;
75854;SDS011;64502;59.976;30.316;2023-06-24T00:26:23;9.23;;;4.15;;
75854;SDS011;64502;59.976;30.316;2023-06-24T00:28:49;6.70;;;3.67;;
75854;SDS011;64502;59.976;30.316;2023-06-24T00:31:14;8.02;;;4.20;;
75854;SDS011;64502;59.976;30.316;2023-06-24T00:33:40;7.53;;;3.67;;
75854;SDS011;64502;59.976;30.316;2023-06-24T00:36:06;9.57;;;4.22;;
75854;SDS011;64502;59.976;30.316;2023-06-24T00:38:33;7.53;;;4.28;;
75854;SDS011;64502;59.976;30.316;2023-06-24T00:40:59;6.28;;;3.55;;
75854;SDS011;64502;59.976;30.316;2023-06-24T00:43:24;6.22;;;3.60;;
75854;SDS011;64502;59.976;30.316;2023-06-24T00:45:50;5.90;;;3.47;;
75854;SDS011;64502;59.976;30.316;2023-06-24T00:48:15;6.53;;;4.10;;
75854;SDS011;64502;59.976;30.316;2023-06-24T00:50:41;5.72;;;3.90;;
75854;SDS011;64502;59.976;30.316;2023-06-24T00:53:10;6.95;;;4.13;;
75854;SDS011;64502;59.976;30.316;2023-06-24T00:55:37;7.47;;;4.13;;
75854;SDS011;64502;59.976;30.316;2023-06-24T00:58:03;7.65;;;4.82;;
75854;SDS011;64502;59.976;30.316;2023-06-24T01:00:29;9.52;;;3.78;;
75854;SDS011;64502;59.976;30.316;2023-06-24T01:02:57;7.63;;;4.10;;
75854;SDS011;64502;59.976;30.316;2023-06-24T01:05:24;7.40;;;4.32;;
75854;SDS011;64502;59.976;30.316;2023-06-24T01:07:50;9.82;;;4.63;;
75854;SDS011;64502;59.976;30.316;2023-06-24T01:10:21;7.07;;;3.97;;
75854;SDS011;64502;59.976;30.316;2023-06-24T01:12:48;6.45;;;3.83;;
75854;SDS011;64502;59.976;30.316;2023-06-24T01:15:14;7.72;;;4.10;;
75854;SDS011;64502;59.976;30.316;2023-06-24T01:17:45;8.73;;;4.53;;
75854;SDS011;64502;59.976;30.316;2023-06-24T01:20:22;7.00;;;3.45;;
75854;SDS011;64502;59.976;30.316;2023-06-24T01:23:07;7.45;;;3.85;;
75854;SDS011;64502;59.976;30.316;2023-06-24T01:25:51;8.75;;;3.60;;
75854;SDS011;64502;59.976;30.316;2023-06-24T01:33:37;10.93;;;3.90;;
75854;SDS011;64502;59.976;30.316;2023-06-24T01:36:10;7.47;;;4.00;;
75854;SDS011;64502;59.976;30.316;2023-06-24T01:38:47;7.10;;;3.85;;
75854;SDS011;64502;59.976;30.316;2023-06-24T01:41:19;8.32;;;3.67;;
75854;SDS011;64502;59.976;30.316;2023-06-24T01:43:50;7.13;;;3.78;;
75854;SDS011;64502;59.976;30.316;2023-06-24T01:46:20;10.00;;;4.13;;
75854;SDS011;64502;59.976;30.316;2023-06-24T01:48:47;8.55;;;4.43;;
75854;SDS011;64502;59.976;30.316;2023-06-24T01:51:17;10.90;;;4.53;;
75854;SDS011;64502;59.976;30.316;2023-06-24T01:53:48;6.80;;;3.42;;
75854;SDS011;64502;59.976;30.316;2023-06-24T01:56:20;7.72;;;4.07;;
75854;SDS011;64502;59.976;30.316;2023-06-24T01:58:48;6.32;;;4.25;;
75854;SDS011;64502;59.976;30.316;2023-06-24T02:01:17;9.40;;;3.92;;
75854;SDS011;64502;59.976;30.316;2023-06-24T02:03:43;6.22;;;3.45;;
75854;SDS011;64502;59.976;30.316;2023-06-24T02:06:09;7.50;;;4.22;;
75854;SDS011;64502;59.976;30.316;2023-06-24T02:08:37;5.90;;;3.17;;
75854;SDS011;64502;59.976;30.316;2023-06-24T02:11:05;7.75;;;3.40;;
75854;SDS011;64502;59.976;30.316;2023-06-24T02:13:33;7.75;;;4.00;;
75854;SDS011;64502;59.976;30.316;2023-06-24T02:16:00;8.23;;;3.88;;
75854;SDS011;64502;59.976;30.316;2023-06-24T02:18:30;8.10;;;4.25;;
75854;SDS011;64502;59.976;30.316;2023-06-24T02:20:56;8.32;;;3.25;;
75854;SDS011;64502;59.976;30.316;2023-06-24T02:23:23;5.68;;;2.97;;
75854;SDS011;64502;59.976;30.316;2023-06-24T02:25:50;7.13;;;3.22;;
75854;SDS011;64502;59.976;30.316;2023-06-24T02:28:16;7.03;;;3.20;;
75854;SDS011;64502;59.976;30.316;2023-06-24T02:30:42;6.65;;;3.42;;
75854;SDS011;64502;59.976;30.316;2023-06-24T02:33:09;6.18;;;3.45;;
75854;SDS011;64502;59.976;30.316;2023-06-24T02:35:37;5.85;;;3.35;;
75854;SDS011;64502;59.976;30.316;2023-06-24T02:38:04;6.65;;;3.15;;
75854;SDS011;64502;59.976;30.316;2023-06-24T02:40:29;6.95;;;3.20;;
75854;SDS011;64502;59.976;30.316;2023-06-24T02:42:56;6.25;;;3.20;;
75854;SDS011;64502;59.976;30.316;2023-06-24T02:45:22;5.15;;;3.03;;
75854;SDS011;64502;59.976;30.316;2023-06-24T02:47:48;5.53;;;2.95;;
75854;SDS011;64502;59.976;30.316;2023-06-24T02:50:15;5.90;;;3.05;;
75854;SDS011;64502;59.976;30.316;2023-06-24T02:52:41;5.95;;;2.90;;
75854;SDS011;64502;59.976;30.316;2023-06-24T02:55:08;5.15;;;2.88;;
75854;SDS011;64502;59.976;30.316;2023-06-24T02:57:34;7.70;;;3.08;;
75854;SDS011;64502;59.976;30.316;2023-06-24T03:00:02;5.28;;;2.55;;
75854;SDS011;64502;59.976;30.316;2023-06-24T03:02:30;4.50;;;3.28;;
75854;SDS011;64502;59.976;30.316;2023-06-24T03:04:57;4.75;;;2.78;;
75854;SDS011;64502;59.976;30.316;2023-06-24T03:07:23;5.85;;;3.40;;
75854;SDS011;64502;59.976;30.316;2023-06-24T03:09:50;5.82;;;2.92;;
75854;SDS011;64502;59.976;30.316;2023-06-24T03:12:16;7.10;;;3.75;;
75854;SDS011;64502;59.976;30.316;2023-06-24T03:14:42;4.35;;;2.63;;
75854;SDS011;64502;59.976;30.316;2023-06-24T03:17:07;6.03;;;3.47;;
75854;SDS011;64502;59.976;30.316;2023-06-24T03:19:33;4.82;;;2.75;;
75854;SDS011;64502;59.976;30.316;2023-06-24T03:21:58;6.28;;;2.67;;
75854;SDS011;64502;59.976;30.316;2023-06-24T03:24:24;6.05;;;3.58;;
75854;SDS011;64502;59.976;30.316;2023-06-24T03:26:49;6.15;;;2.88;;
75854;SDS011;64502;59.976;30.316;2023-06-24T03:29:21;7.32;;;3.45;;
75854;SDS011;64502;59.976;30.316;2023-06-24T03:31:46;5.07;;;3.03;;
75854;SDS011;64502;59.976;30.316;2023-06-24T03:34:12;6.70;;;3.15;;
75854;SDS011;64502;59.976;30.316;2023-06-24T03:36:39;4.35;;;3.10;;
75854;SDS011;64502;59.976;30.316;2023-06-24T03:39:04;6.68;;;3.08;;
75854;SDS011;64502;59.976;30.316;2023-06-24T03:41:30;7.35;;;3.42;;
75854;SDS011;64502;59.976;30.316;2023-06-24T03:43:56;6.90;;;3.85;;
75854;SDS011;64502;59.976;30.316;2023-06-24T03:46:21;6.15;;;3.33;;
75854;SDS011;64502;59.976;30.316;2023-06-24T03:48:47;7.25;;;3.78;;
75854;SDS011;64502;59.976;30.316;2023-06-24T03:51:14;7.22;;;3.13;;
75854;SDS011;64502;59.976;30.316;2023-06-24T03:53:39;5.60;;;3.40;;
75854;SDS011;64502;59.976;30.316;2023-06-24T03:56:05;5.28;;;3.10;;
75854;SDS011;64502;59.976;30.316;2023-06-24T03:58:30;7.97;;;3.30;;
75854;SDS011;64502;59.976;30.316;2023-06-24T04:00:56;6.70;;;2.97;;
75854;SDS011;64502;59.976;30.316;2023-06-24T04:03:24;7.18;;;4.03;;
75854;SDS011;64502;59.976;30.316;2023-06-24T04:05:55;5.28;;;3.22;;
75854;SDS011;64502;59.976;30.316;2023-06-24T04:08:22;5.80;;;3.60;;
75854;SDS011;64502;59.976;30.316;2023-06-24T04:10:50;6.97;;;3.55;;
75854;SDS011;64502;59.976;30.316;2023-06-24T04:13:16;5.80;;;3.13;;
75854;SDS011;64502;59.976;30.316;2023-06-24T04:15:41;6.90;;;3.40;;
75854;SDS011;64502;59.976;30.316;2023-06-24T04:18:07;6.85;;;3.05;;
75854;SDS011;64502;59.976;30.316;2023-06-24T04:20:33;5.38;;;2.92;;
75854;SDS011;64502;59.976;30.316;2023-06-24T04:22:59;5.03;;;3.38;;
75854;SDS011;64502;59.976;30.316;2023-06-24T04:25:25;5.82;;;4.22;;
75854;SDS011;64502;59.976;30.316;2023-06-24T04:27:51;5.88;;;3.63;;
75854;SDS011;64502;59.976;30.316;2023-06-24T04:30:16;6.72;;;3.58;;
75854;SDS011;64502;59.976;30.316;2023-06-24T04:32:42;6.05;;;3.53;;
75854;SDS011;64502;59.976;30.316;2023-06-24T04:35:08;5.63;;;3.42;;
75854;SDS011;64502;59.976;30.316;2023-06-24T04:37:34;7.20;;;4.32;;
75854;SDS011;64502;59.976;30.316;2023-06-24T04:39:59;6.13;;;4.60;;
75854;SDS011;64502;59.976;30.316;2023-06-24T04:42:25;9.07;;;5.13;;
75854;SDS011;64502;59.976;30.316;2023-06-24T04:44:50;9.50;;;5.18;;
75854;SDS011;64502;59.976;30.316;2023-06-24T04:47:18;9.18;;;4.85;;
75854;SDS011;64502;59.976;30.316;2023-06-24T04:49:44;6.75;;;4.63;;
75854;SDS011;64502;59.976;30.316;2023-06-24T04:52:10;8.13;;;4.95;;
75854;SDS011;64502;59.976;30.316;2023-06-24T04:54:36;6.50;;;4.13;;
75854;SDS011;64502;59.976;30.316;2023-06-24T04:57:02;6.90;;;4.05;;
75854;SDS011;64502;59.976;30.316;2023-06-24T04:59:27;7.05;;;4.07;;
75854;SDS011;64502;59.976;30.316;2023-06-24T05:01:53;5.55;;;3.75;;
75854;SDS011;64502;59.976;30.316;2023-06-24T05:04:18;7.10;;;3.58;;
75854;SDS011;64502;59.976;30.316;2023-06-24T05:06:43;10.18;;;4.60;;
75854;SDS011;64502;59.976;30.316;2023-06-24T05:09:09;5.82;;;3.85;;
75854;SDS011;64502;59.976;30.316;2023-06-24T05:11:39;5.97;;;4.15;;
75854;SDS011;64502;59.976;30.316;2023-06-24T05:14:05;5.65;;;3.72;;
75854;SDS011;64502;59.976;30.316;2023-06-24T05:16:30;6.63;;;3.70;;
75854;SDS011;64502;59.976;30.316;2023-06-24T05:18:55;5.90;;;4.35;;
75854;SDS011;64502;59.976;30.316;2023-06-24T05:21:21;6.75;;;3.65;;
75854;SDS011;64502;59.976;30.316;2023-06-24T05:23:46;7.25;;;3.83;;
75854;SDS011;64502;59.976;30.316;2023-06-24T05:26:12;5.47;;;3.60;;
75854;SDS011;64502;59.976;30.316;2023-06-24T05:28:37;6.00;;;4.05;;
75854;SDS011;64502;59.976;30.316;2023-06-24T05:31:03;6.60;;;4.00;;
75854;SDS011;64502;59.976;30.316;2023-06-24T05:33:28;6.53;;;4.25;;
75854;SDS011;64502;59.976;30.316;2023-06-24T05:35:54;7.28;;;3.47;;
75854;SDS011;64502;59.976;30.316;2023-06-24T05:38:19;5.38;;;3.80;;
75854;SDS011;64502;59.976;30.316;2023-06-24T05:40:44;5.72;;;3.42;;
75854;SDS011;64502;59.976;30.316;2023-06-24T05:43:10;5.70;;;3.53;;
75854;SDS011;64502;59.976;30.316;2023-06-24T05:45:36;7.03;;;3.42;;
75854;SDS011;64502;59.976;30.316;2023-06-24T05:48:02;4.38;;;3.10;;
75854;SDS011;64502;59.976;30.316;2023-06-24T05:50:28;5.22;;;2.75;;
75854;SDS011;64502;59.976;30.316;2023-06-24T05:52:53;4.28;;;2.35;;
75854;SDS011;64502;59.976;30.316;2023-06-24T05:55:19;6.00;;;2.90;;
75854;SDS011;64502;59.976;30.316;2023-06-24T05:57:44;4.43;;;2.88;;
75854;SDS011;64502;59.976;30.316;2023-06-24T06:00:10;6.25;;;4.35;;
75854;SDS011;64502;59.976;30.316;2023-06-24T06:02:36;6.57;;;3.97;;
75854;SDS011;64502;59.976;30.316;2023-06-24T06:05:02;6.72;;;3.72;;
75854;SDS011;64502;59.976;30.316;2023-06-24T06:07:28;6.85;;;4.35;;
75854;SDS011;64502;59.976;30.316;2023-06-24T06:09:53;6.03;;;4.60;;
75854;SDS011;64502;59.976;30.316;2023-06-24T06:12:19;6.57;;;5.18;;
75854;SDS011;64502;59.976;30.316;2023-06-24T06:14:44;6.00;;;4.00;;
75854;SDS011;64502;59.976;30.316;2023-06-24T06:17:10;5.13;;;4.22;;
75854;SDS011;64502;59.976;30.316;2023-06-24T06:19:36;9.05;;;5.32;;
75854;SDS011;64502;59.976;30.316;2023-06-24T06:22:04;6.95;;;5.20;;
75854;SDS011;64502;59.976;30.316;2023-06-24T06:24:30;7.40;;;5.88;;
75854;SDS011;64502;59.976;30.316;2023-06-24T06:26:57;8.43;;;5.57;;
75854;SDS011;64502;59.976;30.316;2023-06-24T06:29:22;6.60;;;5.10;;
75854;SDS011;64502;59.976;30.316;2023-06-24T06:31:48;12.43;;;5.78;;
75854;SDS011;64502;59.976;30.316;2023-06-24T06:34:13;6.05;;;4.75;;
75854;SDS011;64502;59.976;30.316;2023-06-24T06:36:39;5.32;;;4.40;;
75854;SDS011;64502;59.976;30.316;2023-06-24T06:39:05;6.03;;;4.45;;
75854;SDS011;64502;59.976;30.316;2023-06-24T06:41:30;5.90;;;4.10;;
75854;SDS011;64502;59.976;30.316;2023-06-24T06:43:55;6.43;;;4.38;;
75854;SDS011;64502;59.976;30.316;2023-06-24T06:46:21;5.43;;;3.45;;
75854;SDS011;64502;59.976;30.316;2023-06-24T06:48:46;5.53;;;3.80;;
75854;SDS011;64502;59.976;30.316;2023-06-24T06:51:12;4.78;;;3.17;;
75854;SDS011;64502;59.976;30.316;2023-06-24T06:53:38;6.00;;;3.08;;
75854;SDS011;64502;59.976;30.316;2023-06-24T06:56:04;4.20;;;3.42;;
75854;SDS011;64502;59.976;30.316;2023-06-24T06:58:29;4.68;;;3.40;;
75854;SDS011;64502;59.976;30.316;2023-06-24T07:00:55;5.53;;;3.17;;
75854;SDS011;64502;59.976;30.316;2023-06-24T07:03:20;5.15;;;3.15;;
75854;SDS011;64502;59.976;30.316;2023-06-24T07:05:46;5.85;;;3.20;;
75854;SDS011;64502;59.976;30.316;2023-06-24T07:08:12;5.38;;;3.05;;
75854;SDS011;64502;59.976;30.316;2023-06-24T07:10:38;5.63;;;3.55;;
75854;SDS011;64502;59.976;30.316;2023-06-24T07:13:03;4.57;;;3.10;;
75854;SDS011;64502;59.976;30.316;2023-06-24T07:15:29;4.47;;;3.20;;
75854;SDS011;64502;59.976;30.316;2023-06-24T07:17:54;4.28;;;3.33;;
75854;SDS011;64502;59.976;30.316;2023-06-24T07:20:20;4.80;;;3.58;;
75854;SDS011;64502;59.976;30.316;2023-06-24T07:22:46;5.75;;;3.70;;
75854;SDS011;64502;59.976;30.316;2023-06-24T07:25:12;7.38;;;3.67;;
75854;SDS011;64502;59.976;30.316;2023-06-24T07:27:38;6.10;;;3.60;;
75854;SDS011;64502;59.976;30.316;2023-06-24T07:30:04;5.20;;;3.58;;
75854;SDS011;64502;59.976;30.316;2023-06-24T07:32:30;4.45;;;3.40;;
75854;SDS011;64502;59.976;30.316;2023-06-24T07:34:55;5.72;;;3.60;;
75854;SDS011;64502;59.976;30.316;2023-06-24T07:37:22;5.53;;;3.55;;
75854;SDS011;64502;59.976;30.316;2023-06-24T07:39:48;7.30;;;3.88;;
75854;SDS011;64502;59.976;30.316;2023-06-24T07:42:13;5.25;;;3.47;;
75854;SDS011;64502;59.976;30.316;2023-06-24T07:44:44;6.15;;;3.95;;
75854;SDS011;64502;59.976;30.316;2023-06-24T07:47:10;5.28;;;4.25;;
75854;SDS011;64502;59.976;30.316;2023-06-24T07:49:36;6.85;;;4.38;;
75854;SDS011;64502;59.976;30.316;2023-06-24T07:52:01;6.78;;;4.00;;
75854;SDS011;64502;59.976;30.316;2023-06-24T07:54:27;5.28;;;4.03;;
75854;SDS011;64502;59.976;30.316;2023-06-24T07:56:52;6.40;;;3.85;;
75854;SDS011;64502;59.976;30.316;2023-06-24T07:59:18;5.47;;;4.18;;
75854;SDS011;64502;59.976;30.316;2023-06-24T08:01:43;5.47;;;4.35;;
75854;SDS011;64502;59.976;30.316;2023-06-24T08:04:09;5.32;;;3.45;;
75854;SDS011;64502;59.976;30.316;2023-06-24T08:06:34;5.20;;;3.75;;
75854;SDS011;64502;59.976;30.316;2023-06-24T08:09:00;6.70;;;3.72;;
75854;SDS011;64502;59.976;30.316;2023-06-24T08:11:25;6.40;;;3.65;;
75854;SDS011;64502;59.976;30.316;2023-06-24T08:13:50;5.55;;;3.17;;
75854;SDS011;64502;59.976;30.316;2023-06-24T08:16:17;6.65;;;3.97;;
75854;SDS011;64502;59.976;30.316;2023-06-24T08:18:45;7.22;;;3.25;;
75854;SDS011;64502;59.976;30.316;2023-06-24T08:21:11;6.95;;;3.25;;
75854;SDS011;64502;59.976;30.316;2023-06-24T08:23:36;5.15;;;2.95;;
75854;SDS011;64502;59.976;30.316;2023-06-24T08:26:02;5.03;;;2.70;;
75854;SDS011;64502;59.976;30.316;2023-06-24T08:28:27;6.78;;;2.63;;
75854;SDS011;64502;59.976;30.316;2023-06-24T08:30:53;8.55;;;3.58;;
75854;SDS011;64502;59.976;30.316;2023-06-24T08:33:18;4.22;;;3.45;;
75854;SDS011;64502;59.976;30.316;2023-06-24T08:35:44;4.20;;;2.40;;
75854;SDS011;64502;59.976;30.316;2023-06-24T08:38:09;4.55;;;2.70;;
75854;SDS011;64502;59.976;30.316;2023-06-24T08:40:35;5.65;;;2.70;;
75854;SDS011;64502;59.976;30.316;2023-06-24T08:43:01;3.35;;;2.35;;
75854;SDS011;64502;59.976;30.316;2023-06-24T08:45:27;4.07;;;2.42;;
75854;SDS011;64502;59.976;30.316;2023-06-24T08:47:52;4.90;;;2.55;;
75854;SDS011;64502;59.976;30.316;2023-06-24T08:50:19;3.72;;;2.20;;
75854;SDS011;64502;59.976;30.316;2023-06-24T08:52:49;4.20;;;2.33;;
75854;SDS011;64502;59.976;30.316;2023-06-24T08:55:16;3.95;;;2.38;;
75854;SDS011;64502;59.976;30.316;2023-06-24T08:57:45;3.25;;;2.08;;
75854;SDS011;64502;59.976;30.316;2023-06-24T09:00:11;3.63;;;1.88;;
75854;SDS011;64502;59.976;30.316;2023-06-24T09:02:38;4.63;;;1.98;;
75854;SDS011;64502;59.976;30.316;2023-06-24T09:05:07;4.85;;;2.13;;
75854;SDS011;64502;59.976;30.316;2023-06-24T09:07:33;3.13;;;1.90;;
75854;SDS011;64502;59.976;30.316;2023-06-24T09:09:59;3.47;;;2.17;;
75854;SDS011;64502;59.976;30.316;2023-06-24T09:12:28;4.68;;;1.77;;
75854;SDS011;64502;59.976;30.316;2023-06-24T09:14:57;4.65;;;2.17;;
75854;SDS011;64502;59.976;30.316;2023-06-24T09:17:23;3.17;;;1.75;;
75854;SDS011;64502;59.976;30.316;2023-06-24T09:19:49;3.22;;;1.58;;
75854;SDS011;64502;59.976;30.316;2023-06-24T09:22:15;4.25;;;1.65;;
75854;SDS011;64502;59.976;30.316;2023-06-24T09:24:44;2.97;;;1.73;;
75854;SDS011;64502;59.976;30.316;2023-06-24T09:27:11;3.08;;;1.67;;
75854;SDS011;64502;59.976;30.316;2023-06-24T09:29:39;3.13;;;1.75;;
75854;SDS011;64502;59.976;30.316;2023-06-24T09:32:05;3.67;;;2.05;;
75854;SDS011;64502;59.976;30.316;2023-06-24T09:34:32;2.70;;;1.83;;
75854;SDS011;64502;59.976;30.316;2023-06-24T09:36:58;2.97;;;2.20;;
75854;SDS011;64502;59.976;30.316;2023-06-24T09:39:25;3.80;;;2.45;;
75854;SDS011;64502;59.976;30.316;2023-06-24T09:41:58;4.60;;;3.03;;
75854;SDS011;64502;59.976;30.316;2023-06-24T09:44:28;4.38;;;2.30;;
75854;SDS011;64502;59.976;30.316;2023-06-24T09:46:54;4.75;;;2.53;;
75854;SDS011;64502;59.976;30.316;2023-06-24T09:49:23;2.58;;;1.70;;
75854;SDS011;64502;59.976;30.316;2023-06-24T09:51:49;3.22;;;1.83;;
75854;SDS011;64502;59.976;30.316;2023-06-24T09:54:19;4.03;;;2.13;;
75854;SDS011;64502;59.976;30.316;2023-06-24T09:56:50;3.42;;;2.35;;
75854;SDS011;64502;59.976;30.316;2023-06-24T09:59:17;6.38;;;2.50;;
75854;SDS011;64502;59.976;30.316;2023-06-24T10:01:47;12.00;;;3.15;;
75854;SDS011;64502;59.976;30.316;2023-06-24T10:04:21;6.47;;;2.95;;
75854;SDS011;64502;59.976;30.316;2023-06-24T10:06:47;3.47;;;2.20;;
75854;SDS011;64502;59.976;30.316;2023-06-24T10:09:14;6.85;;;3.05;;
75854;SDS011;64502;59.976;30.316;2023-06-24T10:11:42;3.67;;;2.38;;
75854;SDS011;64502;59.976;30.316;2023-06-24T10:14:08;4.13;;;2.10;;
75854;SDS011;64502;59.976;30.316;2023-06-24T10:16:34;5.32;;;2.75;;
75854;SDS011;64502;59.976;30.316;2023-06-24T10:19:00;3.05;;;2.42;;
75854;SDS011;64502;59.976;30.316;2023-06-24T10:21:50;3.67;;;2.33;;
75854;SDS011;64502;59.976;30.316;2023-06-24T10:24:38;5.28;;;1.90;;
75854;SDS011;64502;59.976;30.316;2023-06-24T10:27:06;2.95;;;1.83;;
75854;SDS011;64502;59.976;30.316;2023-06-24T10:29:37;5.43;;;2.00;;
75854;SDS011;64502;59.976;30.316;2023-06-24T10:32:08;4.07;;;1.85;;
75854;SDS011;64502;59.976;30.316;2023-06-24T10:37:03;4.03;;;2.20;;
75854;SDS011;64502;59.976;30.316;2023-06-24T10:47:33;4.40;;;1.92;;
75854;SDS011;64502;59.976;30.316;2023-06-24T10:49:59;3.22;;;1.80;;
75854;SDS011;64502;59.976;30.316;2023-06-24T10:52:24;2.55;;;1.58;;
75854;SDS011;64502;59.976;30.316;2023-06-24T10:54:51;3.58;;;1.85;;
75854;SDS011;64502;59.976;30.316;2023-06-24T10:57:22;3.38;;;1.75;;
75854;SDS011;64502;59.976;30.316;2023-06-24T10:59:49;3.05;;;1.60;;
75854;SDS011;64502;59.976;30.316;2023-06-24T11:02:19;4.28;;;1.55;;
75854;SDS011;64502;59.976;30.316;2023-06-24T11:05:19;4.88;;;1.92;;
75854;SDS011;64502;59.976;30.316;2023-06-24T11:07:38;5.10;;;1.88;;
75854;SDS011;64502;59.976;30.316;2023-06-24T11:10:04;5.20;;;2.10;;
75854;SDS011;64502;59.976;30.316;2023-06-24T11:12:32;2.92;;;1.70;;
75854;SDS011;64502;59.976;30.316;2023-06-24T11:15:03;2.97;;;1.50;;
75854;SDS011;64502;59.976;30.316;2023-06-24T11:17:31;2.88;;;1.80;;
75854;SDS011;64502;59.976;30.316;2023-06-24T11:19:58;4.45;;;2.05;;
75854;SDS011;64502;59.976;30.316;2023-06-24T11:22:24;2.20;;;1.58;;
75854;SDS011;64502;59.976;30.316;2023-06-24T11:24:50;4.20;;;1.92;;
75854;SDS011;64502;59.976;30.316;2023-06-24T11:27:23;3.97;;;1.77;;
75854;SDS011;64502;59.976;30.316;2023-06-24T11:29:53;4.93;;;1.73;;
75854;SDS011;64502;59.976;30.316;2023-06-24T11:32:20;2.30;;;1.25;;
75854;SDS011;64502;59.976;30.316;2023-06-24T11:34:46;2.50;;;1.58;;
75854;SDS011;64502;59.976;30.316;2023-06-24T11:37:12;2.42;;;1.27;;
75854;SDS011;64502;59.976;30.316;2023-06-24T11:39:39;3.50;;;1.25;;
75854;SDS011;64502;59.976;30.316;2023-06-24T11:42:08;2.50;;;1.58;;
75854;SDS011;64502;59.976;30.316;2023-06-24T11:44:34;3.53;;;1.60;;
75854;SDS011;64502;59.976;30.316;2023-06-24T11:47:07;2.28;;;1.50;;
75854;SDS011;64502;59.976;30.316;2023-06-24T11:52:18;2.40;;;1.35;;
75854;SDS011;64502;59.976;30.316;2023-06-24T11:54:44;2.78;;;1.13;;
75854;SDS011;64502;59.976;30.316;2023-06-24T11:57:09;4.82;;;1.42;;
75854;SDS011;64502;59.976;30.316;2023-06-24T11:59:35;4.35;;;1.45;;
75854;SDS011;64502;59.976;30.316;2023-06-24T12:02:01;2.88;;;1.50;;
75854;SDS011;64502;59.976;30.316;2023-06-24T12:04:29;3.67;;;2.05;;
75854;SDS011;64502;59.976;30.316;2023-06-24T12:06:55;3.13;;;1.83;;
75854;SDS011;64502;59.976;30.316;2023-06-24T12:09:21;3.20;;;1.52;;
75854;SDS011;64502;59.976;30.316;2023-06-24T12:11:47;2.30;;;1.25;;
75854;SDS011;64502;59.976;30.316;2023-06-24T12:14:12;2.67;;;1.38;;
75854;SDS011;64502;59.976;30.316;2023-06-24T12:16:38;2.65;;;1.50;;
75854;SDS011;64502;59.976;30.316;2023-06-24T12:19:05;2.78;;;1.73;;
75854;SDS011;64502;59.976;30.316;2023-06-24T12:21:33;2.20;;;0.98;;
75854;SDS011;64502;59.976;30.316;2023-06-24T12:23:59;2.13;;;1.10;;
75854;SDS011;64502;59.976;30.316;2023-06-24T12:26:25;2.58;;;1.30;;
75854;SDS011;64502;59.976;30.316;2023-06-24T12:28:53;2.10;;;1.20;;
75854;SDS011;64502;59.976;30.316;2023-06-24T12:31:21;1.80;;;1.08;;
75854;SDS011;64502;59.976;30.316;2023-06-24T12:33:47;1.58;;;1.08;;
75854;SDS011;64502;59.976;30.316;2023-06-24T12:36:12;1.73;;;0.85;;
75854;SDS011;64502;59.976;30.316;2023-06-24T12:38:37;3.28;;;0.90;;
75854;SDS011;64502;59.976;30.316;2023-06-24T12:41:03;2.10;;;0.93;;
75854;SDS011;64502;59.976;30.316;2023-06-24T12:43:29;2.08;;;1.13;;
75854;SDS011;64502;59.976;30.316;2023-06-24T12:45:54;1.75;;;0.90;;
75854;SDS011;64502;59.976;30.316;2023-06-24T12:48:20;1.60;;;0.85;;
75854;SDS011;64502;59.976;30.316;2023-06-24T12:50:46;2.15;;;0.60;;
75854;SDS011;64502;59.976;30.316;2023-06-24T12:53:12;1.58;;;0.60;;
75854;SDS011;64502;59.976;30.316;2023-06-24T12:55:39;2.05;;;0.70;;
75854;SDS011;64502;59.976;30.316;2023-06-24T12:58:05;1.90;;;1.45;;
75854;SDS011;64502;59.976;30.316;2023-06-24T13:00:30;1.95;;;0.52;;
75854;SDS011;64502;59.976;30.316;2023-06-24T13:02:56;1.40;;;0.75;;
75854;SDS011;64502;59.976;30.316;2023-06-24T13:05:21;1.38;;;0.50;;
75854;SDS011;64502;59.976;30.316;2023-06-24T13:07:47;1.20;;;0.50;;
75854;SDS011;64502;59.976;30.316;2023-06-24T13:10:12;2.22;;;0.60;;
75854;SDS011;64502;59.976;30.316;2023-06-24T13:12:37;1.83;;;0.68;;
75854;SDS011;64502;59.976;30.316;2023-06-24T13:15:03;2.22;;;0.88;;
75854;SDS011;64502;59.976;30.316;2023-06-24T13:17:31;1.60;;;1.00;;
75854;SDS011;64502;59.976;30.316;2023-06-24T13:19:57;3.28;;;0.75;;
75854;SDS011;64502;59.976;30.316;2023-06-24T13:22:23;3.10;;;0.95;;
75854;SDS011;64502;59.976;30.316;2023-06-24T13:24:49;2.75;;;0.60;;
75854;SDS011;64502;59.976;30.316;2023-06-24T13:27:15;1.30;;;0.73;;
75854;SDS011;64502;59.976;30.316;2023-06-24T13:29:41;1.40;;;0.60;;
75854;SDS011;64502;59.976;30.316;2023-06-24T13:32:07;2.78;;;0.95;;
75854;SDS011;64502;59.976;30.316;2023-06-24T13:34:33;1.10;;;0.50;;
75854;SDS011;64502;59.976;30.316;2023-06-24T13:36:59;2.70;;;0.98;;
75854;SDS011;64502;59.976;30.316;2023-06-24T13:39:24;2.53;;;0.82;;
75854;SDS011;64502;59.976;30.316;2023-06-24T13:41:50;1.30;;;0.55;;
75854;SDS011;64502;59.976;30.316;2023-06-24T13:44:17;2.47;;;0.70;;
75854;SDS011;64502;59.976;30.316;2023-06-24T13:46:43;2.10;;;0.85;;
75854;SDS011;64502;59.976;30.316;2023-06-24T13:49:09;1.67;;;0.82;;
75854;SDS011;64502;59.976;30.316;2023-06-24T13:51:35;1.67;;;0.80;;
75854;SDS011;64502;59.976;30.316;2023-06-24T13:54:01;1.95;;;0.65;;
75854;SDS011;64502;59.976;30.316;2023-06-24T13:56:26;2.35;;;0.57;;
75854;SDS011;64502;59.976;30.316;2023-06-24T13:58:52;2.63;;;0.95;;
75854;SDS011;64502;59.976;30.316;2023-06-24T14:01:19;1.88;;;1.00;;
75854;SDS011;64502;59.976;30.316;2023-06-24T14:03:45;3.97;;;0.98;;
75854;SDS011;64502;59.976;30.316;2023-06-24T14:06:13;2.13;;;0.80;;
75854;SDS011;64502;59.976;30.316;2023-06-24T14:08:40;5.88;;;1.00;;
75854;SDS011;64502;59.976;30.316;2023-06-24T14:11:06;2.35;;;0.68;;
75854;SDS011;64502;59.976;30.316;2023-06-24T14:13:31;1.42;;;1.00;;
75854;SDS011;64502;59.976;30.316;2023-06-24T14:15:57;2.33;;;0.90;;
75854;SDS011;64502;59.976;30.316;2023-06-24T14:18:22;2.45;;;1.00;;
75854;SDS011;64502;59.976;30.316;2023-06-24T14:20:48;1.60;;;0.88;;
75854;SDS011;64502;59.976;30.316;2023-06-24T14:23:14;1.92;;;0.77;;
75854;SDS011;64502;59.976;30.316;2023-06-24T14:25:39;3.70;;;0.95;;
75854;SDS011;64502;59.976;30.316;2023-06-24T14:28:05;2.50;;;0.80;;
75854;SDS011;64502;59.976;30.316;2023-06-24T14:30:31;1.80;;;1.40;;
75854;SDS011;64502;59.976;30.316;2023-06-24T14:32:56;1.77;;;0.70;;
75854;SDS011;64502;59.976;30.316;2023-06-24T14:35:22;3.10;;;0.88;;
75854;SDS011;64502;59.976;30.316;2023-06-24T14:37:48;1.30;;;0.65;;
75854;SDS011;64502;59.976;30.316;2023-06-24T14:40:13;2.13;;;0.80;;
75854;SDS011;64502;59.976;30.316;2023-06-24T14:42:38;1.90;;;0.70;;
75854;SDS011;64502;59.976;30.316;2023-06-24T14:45:04;2.13;;;1.00;;
75854;SDS011;64502;59.976;30.316;2023-06-24T14:47:30;2.40;;;0.85;;
75854;SDS011;64502;59.976;30.316;2023-06-24T14:49:56;1.27;;;0.80;;